Time,TemperatureF,DewpointF,PressureIn,WindDirection,WindDirectionDegrees,WindSpeedMPH,WindSpeedGustMPH,Humidity,HourlyPrecipIn,Conditions,Clouds,dailyrainin,SoftwareType,DateUTC
2013-06-20 00:02:00,55.0,48.0,30.16,ESE,108,0.0,1.0,76,0.00,,,0.00,,2013-06-20 04:02:00,
2013-06-20 00:11:00,55.0,48.0,30.16,ESE,108,0.0,2.0,78,0.00,,,0.00,,2013-06-20 04:11:00,
2013-06-20 00:23:00,55.0,49.0,30.16,ESE,108,0.0,1.0,79,0.00,,,0.00,,2013-06-20 04:23:00,
2013-06-20 00:34:00,54.0,48.0,30.16,ESE,108,0.0,1.0,80,0.00,,,0.00,,2013-06-20 04:34:00,
2013-06-20 00:43:00,54.0,48.0,30.16,ESE,108,0.0,0.0,81,0.00,,,0.00,,2013-06-20 04:43:00,
2013-06-20 00:53:00,54.0,49.0,30.16,ESE,108,0.0,0.0,83,0.00,,,0.00,,2013-06-20 04:53:00,
2013-06-20 01:02:00,54.0,49.0,30.16,ESE,108,0.0,0.0,82,0.00,,,0.00,,2013-06-20 05:02:00,
2013-06-20 01:12:00,53.0,48.0,30.16,ESE,108,0.0,0.0,84,0.00,,,0.00,,2013-06-20 05:12:00,
2013-06-20 01:22:00,53.0,47.0,30.17,ESE,108,0.0,0.0,81,0.00,,,0.00,,2013-06-20 05:22:00,
2013-06-20 01:33:00,53.0,47.0,30.17,ESE,108,0.0,0.0,80,0.00,,,0.00,,2013-06-20 05:33:00,
2013-06-20 01:44:00,52.0,46.0,30.16,ESE,112,0.0,2.0,80,0.00,,,0.00,,2013-06-20 05:44:00,
2013-06-20 01:52:00,52.0,46.0,30.16,ESE,112,0.0,0.0,79,0.00,,,0.00,,2013-06-20 05:52:00,
2013-06-20 02:02:00,52.0,46.0,30.16,ESE,112,0.0,0.0,79,0.00,,,0.00,,2013-06-20 06:02:00,
2013-06-20 02:11:00,53.0,47.0,30.16,ESE,112,0.0,1.0,79,0.00,,,0.00,,2013-06-20 06:11:00,
2013-06-20 02:22:00,53.0,46.0,30.16,ESE,112,0.0,1.0,78,0.00,,,0.00,,2013-06-20 06:22:00,
2013-06-20 02:34:00,53.0,46.0,30.16,ESE,112,0.0,0.0,76,0.00,,,0.00,,2013-06-20 06:34:00,
2013-06-20 02:43:00,53.0,46.0,30.16,ESE,112,0.0,0.0,76,0.00,,,0.00,,2013-06-20 06:43:00,
2013-06-20 02:53:00,53.0,45.0,30.16,ESE,112,0.0,1.0,75,0.00,,,0.00,,2013-06-20 06:53:00,
2013-06-20 03:01:00,53.0,46.0,30.16,ESE,112,0.0,0.0,78,0.00,,,0.00,,2013-06-20 07:01:00,
2013-06-20 03:12:00,52.0,47.0,30.16,ESE,112,0.0,0.0,82,0.00,,,0.00,,2013-06-20 07:12:00,
2013-06-20 03:22:00,51.0,46.0,30.16,ESE,112,0.0,0.0,83,0.00,,,0.00,,2013-06-20 07:22:00,
2013-06-20 03:34:00,51.0,48.0,30.16,ESE,112,0.0,0.0,88,0.00,,,0.00,,2013-06-20 07:34:00,
2013-06-20 03:44:00,50.0,46.0,30.16,ESE,112,0.0,0.0,87,0.00,,,0.00,,2013-06-20 07:44:00,
2013-06-20 03:52:00,50.0,46.0,30.16,ESE,112,0.0,0.0,87,0.00,,,0.00,,2013-06-20 07:52:00,
2013-06-20 04:02:00,49.0,46.0,30.17,ESE,112,0.0,0.0,88,0.00,,,0.00,,2013-06-20 08:02:00,
2013-06-20 04:11:00,49.0,46.0,30.17,ESE,112,0.0,0.0,89,0.00,,,0.00,,2013-06-20 08:11:00,
2013-06-20 04:22:00,49.0,46.0,30.17,ESE,112,0.0,0.0,89,0.00,,,0.00,,2013-06-20 08:22:00,
2013-06-20 04:34:00,48.0,45.0,30.17,ESE,112,0.0,1.0,90,0.00,,,0.00,,2013-06-20 08:34:00,
2013-06-20 04:43:00,49.0,46.0,30.17,ESE,112,0.0,1.0,90,0.00,,,0.00,,2013-06-20 08:43:00,
2013-06-20 04:53:00,49.0,46.0,30.17,ESE,112,0.0,0.0,90,0.00,,,0.00,,2013-06-20 08:53:00,
2013-06-20 05:02:00,49.0,46.0,30.17,ESE,112,0.0,1.0,90,0.00,,,0.00,,2013-06-20 09:02:00,
2013-06-20 05:12:00,49.0,46.0,30.18,ESE,112,0.0,1.0,91,0.00,,,0.00,,2013-06-20 09:12:00,
2013-06-20 05:22:00,48.0,45.0,30.18,ESE,112,0.0,1.0,91,0.00,,,0.00,,2013-06-20 09:22:00,
2013-06-20 05:33:00,48.0,46.0,30.18,ESE,112,0.0,1.0,92,0.00,,,0.00,,2013-06-20 09:33:00,
2013-06-20 05:42:00,48.0,46.0,30.18,ESE,112,0.0,1.0,93,0.00,,,0.00,,2013-06-20 09:42:00,
2013-06-20 05:52:00,48.0,46.0,30.18,ESE,112,0.0,1.0,92,0.00,,,0.00,,2013-06-20 09:52:00,
2013-06-20 06:01:00,48.0,46.0,30.19,ESE,112,0.0,0.0,92,0.00,,,0.00,,2013-06-20 10:01:00,
2013-06-20 06:11:00,48.0,46.0,30.19,ESE,112,0.0,1.0,92,0.00,,,0.00,,2013-06-20 10:11:00,
2013-06-20 06:22:00,48.0,45.0,30.19,ESE,112,0.0,2.0,91,0.00,,,0.00,,2013-06-20 10:22:00,
2013-06-20 06:34:00,48.0,46.0,30.19,ESE,112,0.0,1.0,92,0.00,,,0.00,,2013-06-20 10:34:00,
2013-06-20 06:43:00,49.0,47.0,30.20,ESE,112,0.0,1.0,92,0.00,,,0.00,,2013-06-20 10:43:00,
2013-06-20 06:53:00,49.0,47.0,30.20,ESE,112,0.0,1.0,92,0.00,,,0.00,,2013-06-20 10:53:00,
2013-06-20 07:02:00,50.0,48.0,30.19,ESE,112,0.0,1.0,92,0.00,,,0.00,,2013-06-20 11:02:00,
2013-06-20 07:12:00,51.0,49.0,30.20,ESE,112,0.0,1.0,92,0.00,,,0.00,,2013-06-20 11:12:00,
2013-06-20 07:22:00,52.0,49.0,30.20,ESE,112,0.0,1.0,91,0.00,,,0.00,,2013-06-20 11:22:00,
2013-06-20 07:34:00,53.0,50.0,30.20,ESE,112,0.0,2.0,90,0.00,,,0.00,,2013-06-20 11:34:00,
2013-06-20 07:43:00,55.0,52.0,30.20,ESE,112,0.0,1.0,88,0.00,,,0.00,,2013-06-20 11:43:00,
2013-06-20 07:53:00,57.0,52.0,30.20,ESE,112,0.0,1.0,83,0.00,,,0.00,,2013-06-20 11:53:00,
2013-06-20 08:02:00,59.0,52.0,30.21,ESE,112,0.0,1.0,79,0.00,,,0.00,,2013-06-20 12:02:00,
2013-06-20 08:12:00,61.0,52.0,30.21,ESE,112,0.0,1.0,73,0.00,,,0.00,,2013-06-20 12:12:00,
2013-06-20 08:22:00,62.0,52.0,30.20,ESE,112,0.0,1.0,70,0.00,,,0.00,,2013-06-20 12:22:00,
2013-06-20 08:34:00,63.0,52.0,30.21,ESE,112,0.0,2.0,68,0.00,,,0.00,,2013-06-20 12:34:00,
2013-06-20 08:43:00,65.0,54.0,30.21,ESE,120,0.0,3.0,68,0.00,,,0.00,,2013-06-20 12:43:00,
2013-06-20 08:53:00,66.0,54.0,30.21,SE,124,1.0,3.0,65,0.00,,,0.00,,2013-06-20 12:53:00,
2013-06-20 09:02:00,67.0,55.0,30.21,SE,140,0.0,3.0,66,0.00,,,0.00,,2013-06-20 13:02:00,
2013-06-20 09:11:00,68.0,52.0,30.22,SE,136,1.0,2.0,57,0.00,,,0.00,,2013-06-20 13:11:00,
2013-06-20 09:22:00,68.0,54.0,30.22,NNW,329,1.0,3.0,60,0.00,,,0.00,,2013-06-20 13:22:00,
2013-06-20 09:33:00,69.0,54.0,30.22,NNE,32,1.0,4.0,59,0.00,,,0.00,,2013-06-20 13:33:00,
2013-06-20 09:42:00,68.0,51.0,30.23,NE,49,2.0,4.0,55,0.00,,,0.00,,2013-06-20 13:42:00,
2013-06-20 09:53:00,68.0,52.0,30.23,NE,42,2.0,5.0,57,0.00,,,0.00,,2013-06-20 13:53:00,
2013-06-20 10:02:00,68.0,51.0,30.23,NE,44,2.0,4.0,54,0.00,,,0.00,,2013-06-20 14:02:00,
2013-06-20 10:11:00,68.0,53.0,30.23,North,11,3.0,5.0,58,0.00,,,0.00,,2013-06-20 14:11:00,
2013-06-20 10:22:00,67.0,50.0,30.22,ENE,69,3.0,6.0,55,0.00,,,0.00,,2013-06-20 14:22:00,
2013-06-20 10:32:00,68.0,53.0,30.22,NNW,342,2.0,6.0,59,0.00,,,0.00,,2013-06-20 14:32:00,
2013-06-20 10:42:00,68.0,52.0,30.22,ENE,58,1.0,5.0,57,0.00,,,0.00,,2013-06-20 14:42:00,
2013-06-20 10:53:00,69.0,55.0,30.22,WNW,288,1.0,4.0,60,0.00,,,0.00,,2013-06-20 14:53:00,
2013-06-20 11:02:00,69.0,54.0,30.22,WNW,294,1.0,4.0,58,0.00,,,0.00,,2013-06-20 15:02:00,
2013-06-20 11:11:00,69.0,55.0,30.22,ENE,68,3.0,7.0,61,0.00,,,0.00,,2013-06-20 15:11:00,
2013-06-20 11:22:00,69.0,55.0,30.22,NE,42,1.0,6.0,61,0.00,,,0.00,,2013-06-20 15:22:00,
2013-06-20 11:33:00,69.0,54.0,30.22,NE,50,4.0,6.0,58,0.00,,,0.00,,2013-06-20 15:33:00,
2013-06-20 11:43:00,69.0,55.0,30.22,NE,53,2.0,6.0,60,0.00,,,0.00,,2013-06-20 15:43:00,
2013-06-20 11:53:00,70.0,55.0,30.22,ENE,69,3.0,5.0,60,0.00,,,0.00,,2013-06-20 15:53:00,
2013-06-20 12:02:00,70.0,52.0,30.21,NE,56,2.0,4.0,53,0.00,,,0.00,,2013-06-20 16:02:00,
2013-06-20 12:12:00,71.0,57.0,30.21,NE,53,0.0,3.0,61,0.00,,,0.00,,2013-06-20 16:12:00,
2013-06-20 12:22:00,71.0,55.0,30.21,NE,56,2.0,5.0,58,0.00,,,0.00,,2013-06-20 16:22:00,
2013-06-20 12:43:00,72.0,53.0,30.21,East,99,1.0,5.0,52,0.00,,,0.00,,2013-06-20 16:43:00,
2013-06-20 12:52:00,73.0,53.0,30.20,ESE,107,3.0,6.0,50,0.00,,,0.00,,2013-06-20 16:52:00,
2013-06-20 13:02:00,72.0,50.0,30.20,East,101,2.0,3.0,46,0.00,,,0.00,,2013-06-20 17:02:00,
2013-06-20 13:12:00,73.0,55.0,30.20,NNE,24,2.0,7.0,53,0.00,,,0.00,,2013-06-20 17:12:00,
2013-06-20 13:22:00,73.0,53.0,30.20,NNE,32,3.0,7.0,49,0.00,,,0.00,,2013-06-20 17:22:00,
2013-06-20 13:32:00,73.0,51.0,30.20,ENE,72,2.0,7.0,46,0.00,,,0.00,,2013-06-20 17:32:00,
2013-06-20 13:43:00,73.0,53.0,30.20,NNE,13,2.0,7.0,50,0.00,,,0.00,,2013-06-20 17:43:00,
2013-06-20 13:53:00,73.0,52.0,30.20,ENE,57,3.0,6.0,48,0.00,,,0.00,,2013-06-20 17:53:00,
2013-06-20 14:01:00,73.0,52.0,30.20,ENE,62,3.0,7.0,47,0.00,,,0.00,,2013-06-20 18:01:00,
2013-06-20 14:11:00,73.0,50.0,30.20,NE,53,3.0,7.0,45,0.00,,,0.00,,2013-06-20 18:11:00,
2013-06-20 14:22:00,72.0,51.0,30.20,NE,50,3.0,11.0,48,0.00,,,0.00,,2013-06-20 18:22:00,
2013-06-20 14:33:00,71.0,51.0,30.20,ENE,58,3.0,7.0,50,0.00,,,0.00,,2013-06-20 18:33:00,
2013-06-20 14:43:00,72.0,51.0,30.20,ENE,73,2.0,7.0,47,0.00,,,0.00,,2013-06-20 18:43:00,
2013-06-20 14:53:00,72.0,52.0,30.20,NE,35,3.0,10.0,49,0.00,,,0.00,,2013-06-20 18:53:00,
2013-06-20 15:01:00,71.0,51.0,30.20,NNE,32,5.0,8.0,50,0.00,,,0.00,,2013-06-20 19:01:00,
2013-06-20 15:11:00,71.0,52.0,30.20,NE,50,3.0,8.0,52,0.00,,,0.00,,2013-06-20 19:11:00,
2013-06-20 15:22:00,71.0,52.0,30.21,ENE,70,4.0,9.0,51,0.00,,,0.00,,2013-06-20 19:22:00,
2013-06-20 15:34:00,71.0,51.0,30.20,ENE,78,7.0,9.0,50,0.00,,,0.00,,2013-06-20 19:34:00,
2013-06-20 15:43:00,71.0,50.0,30.20,ENE,65,6.0,10.0,48,0.00,,,0.00,,2013-06-20 19:43:00,
2013-06-20 15:52:00,71.0,52.0,30.20,ENE,67,3.0,10.0,52,0.00,,,0.00,,2013-06-20 19:52:00,
2013-06-20 16:02:00,71.0,50.0,30.19,ENE,59,8.0,11.0,47,0.00,,,0.00,,2013-06-20 20:02:00,
2013-06-20 16:11:00,71.0,52.0,30.19,ENE,69,6.0,11.0,52,0.00,,,0.00,,2013-06-20 20:11:00,
2013-06-20 16:33:00,72.0,51.0,30.19,East,80,6.0,12.0,47,0.00,,,0.00,,2013-06-20 20:33:00,